sensor_id;sensor_type;location;lat;lon;timestamp;P1;durP1;ratioP1;P2;durP2;ratioP2
61112;SDS011;47184;57.998;56.184;2023-02-22T00:00:53;24.55;;;7.88;;
61112;SDS011;47184;57.998;56.184;2023-02-22T00:03:25;28.83;;;9.30;;
61112;SDS011;47184;57.998;56.184;2023-02-22T00:05:53;37.97;;;10.80;;
61112;SDS011;47184;57.998;56.184;2023-02-22T00:08:23;2.70;;;2.22;;
61112;SDS011;47184;57.998;56.184;2023-02-22T00:10:55;5.97;;;3.03;;
61112;SDS011;47184;57.998;56.184;2023-02-22T00:13:22;33.88;;;9.75;;
61112;SDS011;47184;57.998;56.184;2023-02-22T00:15:48;28.65;;;9.27;;
61112;SDS011;47184;57.998;56.184;2023-02-22T00:18:17;30.05;;;8.45;;
61112;SDS011;47184;57.998;56.184;2023-02-22T00:20:44;29.27;;;9.52;;
61112;SDS011;47184;57.998;56.184;2023-02-22T00:23:14;30.10;;;9.32;;
61112;SDS011;47184;57.998;56.184;2023-02-22T00:25:44;29.40;;;9.75;;
61112;SDS011;47184;57.998;56.184;2023-02-22T00:28:11;46.30;;;11.43;;
61112;SDS011;47184;57.998;56.184;2023-02-22T00:30:39;30.52;;;10.23;;
61112;SDS011;47184;57.998;56.184;2023-02-22T00:33:09;32.08;;;9.40;;
61112;SDS011;47184;57.998;56.184;2023-02-22T00:35:37;13.48;;;4.75;;
61112;SDS011;47184;57.998;56.184;2023-02-22T00:38:03;11.82;;;5.18;;
61112;SDS011;47184;57.998;56.184;2023-02-22T00:40:32;14.68;;;5.88;;
61112;SDS011;47184;57.998;56.184;2023-02-22T00:43:02;23.42;;;7.63;;
61112;SDS011;47184;57.998;56.184;2023-02-22T00:45:30;24.20;;;7.28;;
61112;SDS011;47184;57.998;56.184;2023-02-22T00:47:57;28.08;;;7.80;;
61112;SDS011;47184;57.998;56.184;2023-02-22T00:50:26;21.60;;;7.82;;
61112;SDS011;47184;57.998;56.184;2023-02-22T00:52:54;33.30;;;8.90;;
61112;SDS011;47184;57.998;56.184;2023-02-22T00:55:22;21.08;;;7.63;;
61112;SDS011;47184;57.998;56.184;2023-02-22T00:57:51;31.52;;;9.63;;
61112;SDS011;47184;57.998;56.184;2023-02-22T01:00:19;26.45;;;8.98;;
61112;SDS011;47184;57.998;56.184;2023-02-22T01:02:50;27.27;;;8.52;;
61112;SDS011;47184;57.998;56.184;2023-02-22T01:05:17;18.92;;;6.63;;
61112;SDS011;47184;57.998;56.184;2023-02-22T01:07:45;26.73;;;7.80;;
61112;SDS011;47184;57.998;56.184;2023-02-22T01:10:15;19.90;;;6.90;;
61112;SDS011;47184;57.998;56.184;2023-02-22T01:12:46;24.85;;;8.38;;
61112;SDS011;47184;57.998;56.184;2023-02-22T01:15:14;35.20;;;10.05;;
61112;SDS011;47184;57.998;56.184;2023-02-22T01:17:46;34.67;;;8.95;;
61112;SDS011;47184;57.998;56.184;2023-02-22T01:20:14;28.58;;;9.73;;
61112;SDS011;47184;57.998;56.184;2023-02-22T01:22:41;27.60;;;10.35;;
61112;SDS011;47184;57.998;56.184;2023-02-22T01:25:09;22.55;;;7.50;;
61112;SDS011;47184;57.998;56.184;2023-02-22T01:27:38;37.03;;;10.65;;
61112;SDS011;47184;57.998;56.184;2023-02-22T01:30:04;30.40;;;9.85;;
61112;SDS011;47184;57.998;56.184;2023-02-22T01:32:34;24.40;;;8.05;;
61112;SDS011;47184;57.998;56.184;2023-02-22T01:35:01;25.55;;;10.13;;
61112;SDS011;47184;57.998;56.184;2023-02-22T01:37:30;16.33;;;5.93;;
61112;SDS011;47184;57.998;56.184;2023-02-22T01:39:58;18.30;;;6.90;;
61112;SDS011;47184;57.998;56.184;2023-02-22T01:42:24;21.33;;;5.57;;
61112;SDS011;47184;57.998;56.184;2023-02-22T01:48:03;13.43;;;4.22;;
61112;SDS011;47184;57.998;56.184;2023-02-22T01:50:34;22.25;;;8.32;;
61112;SDS011;47184;57.998;56.184;2023-02-22T01:53:04;19.50;;;7.38;;
61112;SDS011;47184;57.998;56.184;2023-02-22T01:55:32;29.92;;;7.57;;
61112;SDS011;47184;57.998;56.184;2023-02-22T01:58:00;30.52;;;9.23;;
61112;SDS011;47184;57.998;56.184;2023-02-22T02:00:28;31.13;;;8.65;;
61112;SDS011;47184;57.998;56.184;2023-02-22T02:03:00;35.17;;;10.90;;
61112;SDS011;47184;57.998;56.184;2023-02-22T02:05:30;29.38;;;9.63;;
61112;SDS011;47184;57.998;56.184;2023-02-22T02:08:00;29.55;;;8.32;;
61112;SDS011;47184;57.998;56.184;2023-02-22T02:10:40;31.05;;;10.60;;
61112;SDS011;47184;57.998;56.184;2023-02-22T02:13:07;41.90;;;14.50;;
61112;SDS011;47184;57.998;56.184;2023-02-22T02:15:54;62.03;;;19.35;;
61112;SDS011;47184;57.998;56.184;2023-02-22T02:18:21;72.95;;;22.25;;
61112;SDS011;47184;57.998;56.184;2023-02-22T02:35:14;98.85;;;29.55;;
61112;SDS011;47184;57.998;56.184;2023-02-22T02:40:20;27.92;;;11.15;;
61112;SDS011;47184;57.998;56.184;2023-02-22T02:48:50;59.08;;;15.52;;
61112;SDS011;47184;57.998;56.184;2023-02-22T02:51:21;31.58;;;10.35;;
61112;SDS011;47184;57.998;56.184;2023-02-22T02:53:53;45.88;;;14.85;;
61112;SDS011;47184;57.998;56.184;2023-02-22T02:56:22;48.13;;;15.20;;
61112;SDS011;47184;57.998;56.184;2023-02-22T02:58:52;61.08;;;18.02;;
61112;SDS011;47184;57.998;56.184;2023-02-22T03:01:28;51.77;;;17.07;;
61112;SDS011;47184;57.998;56.184;2023-02-22T03:21:40;38.22;;;11.55;;
61112;SDS011;47184;57.998;56.184;2023-02-22T03:24:36;36.20;;;10.77;;
61112;SDS011;47184;57.998;56.184;2023-02-22T03:27:25;41.67;;;12.85;;
61112;SDS011;47184;57.998;56.184;2023-02-22T03:30:02;37.95;;;11.82;;
61112;SDS011;47184;57.998;56.184;2023-02-22T03:32:35;32.97;;;12.30;;
61112;SDS011;47184;57.998;56.184;2023-02-22T03:35:13;53.42;;;14.23;;
61112;SDS011;47184;57.998;56.184;2023-02-22T03:37:47;30.60;;;11.95;;
61112;SDS011;47184;57.998;56.184;2023-02-22T03:40:19;66.45;;;16.45;;
61112;SDS011;47184;57.998;56.184;2023-02-22T03:42:52;61.83;;;17.65;;
61112;SDS011;47184;57.998;56.184;2023-02-22T03:45:25;52.40;;;20.17;;
61112;SDS011;47184;57.998;56.184;2023-02-22T03:47:57;85.43;;;23.55;;
61112;SDS011;47184;57.998;56.184;2023-02-22T03:50:31;88.15;;;27.67;;
61112;SDS011;47184;57.998;56.184;2023-02-22T03:53:00;61.53;;;23.30;;
61112;SDS011;47184;57.998;56.184;2023-02-22T03:55:30;47.58;;;18.98;;
61112;SDS011;47184;57.998;56.184;2023-02-22T03:57:57;42.17;;;17.17;;
61112;SDS011;47184;57.998;56.184;2023-02-22T04:00:28;53.45;;;16.90;;
61112;SDS011;47184;57.998;56.184;2023-02-22T04:02:57;44.28;;;12.80;;
61112;SDS011;47184;57.998;56.184;2023-02-22T04:05:24;89.75;;;22.05;;
61112;SDS011;47184;57.998;56.184;2023-02-22T04:07:51;52.97;;;16.65;;
61112;SDS011;47184;57.998;56.184;2023-02-22T04:10:19;60.03;;;18.42;;
61112;SDS011;47184;57.998;56.184;2023-02-22T04:12:46;37.28;;;14.88;;
61112;SDS011;47184;57.998;56.184;2023-02-22T04:15:13;44.55;;;15.95;;
61112;SDS011;47184;57.998;56.184;2023-02-22T04:17:42;60.75;;;17.58;;
61112;SDS011;47184;57.998;56.184;2023-02-22T04:20:12;61.05;;;17.02;;
61112;SDS011;47184;57.998;56.184;2023-02-22T04:22:47;60.70;;;18.08;;
61112;SDS011;47184;57.998;56.184;2023-02-22T04:25:14;54.22;;;15.02;;
61112;SDS011;47184;57.998;56.184;2023-02-22T04:27:40;47.13;;;15.57;;
61112;SDS011;47184;57.998;56.184;2023-02-22T04:30:07;56.90;;;16.83;;
61112;SDS011;47184;57.998;56.184;2023-02-22T04:32:35;48.53;;;15.98;;
61112;SDS011;47184;57.998;56.184;2023-02-22T04:35:01;45.60;;;13.38;;
61112;SDS011;47184;57.998;56.184;2023-02-22T04:37:29;55.70;;;14.23;;
61112;SDS011;47184;57.998;56.184;2023-02-22T04:40:02;32.58;;;12.13;;
61112;SDS011;47184;57.998;56.184;2023-02-22T04:42:36;44.50;;;15.60;;
61112;SDS011;47184;57.998;56.184;2023-02-22T04:45:04;61.95;;;16.08;;
61112;SDS011;47184;57.998;56.184;2023-02-22T04:47:33;47.95;;;12.90;;
61112;SDS011;47184;57.998;56.184;2023-02-22T04:50:00;36.90;;;11.10;;
61112;SDS011;47184;57.998;56.184;2023-02-22T04:52:28;51.75;;;16.15;;
61112;SDS011;47184;57.998;56.184;2023-02-22T04:54:54;46.85;;;14.30;;
61112;SDS011;47184;57.998;56.184;2023-02-22T04:57:20;66.40;;;15.25;;
61112;SDS011;47184;57.998;56.184;2023-02-22T04:59:48;37.05;;;12.80;;
61112;SDS011;47184;57.998;56.184;2023-02-22T05:02:16;28.58;;;10.23;;
61112;SDS011;47184;57.998;56.184;2023-02-22T05:04:43;24.52;;;8.38;;
61112;SDS011;47184;57.998;56.184;2023-02-22T05:07:09;25.88;;;10.57;;
61112;SDS011;47184;57.998;56.184;2023-02-22T05:09:35;45.35;;;12.52;;
61112;SDS011;47184;57.998;56.184;2023-02-22T05:12:01;3.88;;;1.58;;
61112;SDS011;47184;57.998;56.184;2023-02-22T05:14:27;37.78;;;12.70;;
61112;SDS011;47184;57.998;56.184;2023-02-22T05:16:54;41.83;;;12.40;;
61112;SDS011;47184;57.998;56.184;2023-02-22T05:19:21;20.63;;;8.10;;
61112;SDS011;47184;57.998;56.184;2023-02-22T05:21:48;37.13;;;13.00;;
61112;SDS011;47184;57.998;56.184;2023-02-22T05:24:14;28.92;;;10.13;;
61112;SDS011;47184;57.998;56.184;2023-02-22T05:26:41;35.28;;;10.45;;
61112;SDS011;47184;57.998;56.184;2023-02-22T05:29:10;48.08;;;14.00;;
61112;SDS011;47184;57.998;56.184;2023-02-22T05:31:37;46.38;;;15.45;;
61112;SDS011;47184;57.998;56.184;2023-02-22T05:34:03;54.15;;;16.83;;
61112;SDS011;47184;57.998;56.184;2023-02-22T05:36:29;57.17;;;16.27;;
61112;SDS011;47184;57.998;56.184;2023-02-22T05:38:55;53.33;;;14.77;;
61112;SDS011;47184;57.998;56.184;2023-02-22T05:41:21;53.65;;;17.80;;
61112;SDS011;47184;57.998;56.184;2023-02-22T05:43:47;33.33;;;12.07;;
61112;SDS011;47184;57.998;56.184;2023-02-22T05:46:13;75.45;;;20.75;;
61112;SDS011;47184;57.998;56.184;2023-02-22T05:48:40;57.65;;;17.35;;
61112;SDS011;47184;57.998;56.184;2023-02-22T05:51:06;65.38;;;18.35;;
61112;SDS011;47184;57.998;56.184;2023-02-22T05:53:34;59.70;;;16.48;;
61112;SDS011;47184;57.998;56.184;2023-02-22T05:56:00;52.05;;;12.98;;
61112;SDS011;47184;57.998;56.184;2023-02-22T05:58:27;56.45;;;16.20;;
61112;SDS011;47184;57.998;56.184;2023-02-22T06:00:53;54.72;;;17.33;;
61112;SDS011;47184;57.998;56.184;2023-02-22T06:03:19;50.92;;;12.27;;
61112;SDS011;47184;57.998;56.184;2023-02-22T06:05:45;49.17;;;15.10;;
61112;SDS011;47184;57.998;56.184;2023-02-22T06:08:11;62.00;;;18.40;;
61112;SDS011;47184;57.998;56.184;2023-02-22T06:10:37;53.65;;;16.38;;
61112;SDS011;47184;57.998;56.184;2023-02-22T06:13:04;64.05;;;18.45;;
61112;SDS011;47184;57.998;56.184;2023-02-22T06:15:30;71.22;;;19.35;;
61112;SDS011;47184;57.998;56.184;2023-02-22T06:17:57;61.65;;;17.52;;
61112;SDS011;47184;57.998;56.184;2023-02-22T06:20:25;61.33;;;18.35;;
61112;SDS011;47184;57.998;56.184;2023-02-22T06:22:55;55.28;;;18.70;;
61112;SDS011;47184;57.998;56.184;2023-02-22T06:25:24;64.88;;;19.80;;
61112;SDS011;47184;57.998;56.184;2023-02-22T06:27:52;56.58;;;17.27;;
61112;SDS011;47184;57.998;56.184;2023-02-22T06:30:19;57.72;;;18.88;;
61112;SDS011;47184;57.998;56.184;2023-02-22T06:32:47;59.03;;;17.48;;
61112;SDS011;47184;57.998;56.184;2023-02-22T06:35:13;73.50;;;19.75;;
61112;SDS011;47184;57.998;56.184;2023-02-22T06:37:40;63.10;;;18.58;;
61112;SDS011;47184;57.998;56.184;2023-02-22T06:40:06;69.60;;;19.30;;
61112;SDS011;47184;57.998;56.184;2023-02-22T06:42:32;54.00;;;17.38;;
61112;SDS011;47184;57.998;56.184;2023-02-22T06:44:59;77.15;;;20.73;;
61112;SDS011;47184;57.998;56.184;2023-02-22T06:47:25;64.85;;;20.88;;
61112;SDS011;47184;57.998;56.184;2023-02-22T06:49:52;64.78;;;19.92;;
61112;SDS011;47184;57.998;56.184;2023-02-22T06:52:18;72.00;;;18.35;;
61112;SDS011;47184;57.998;56.184;2023-02-22T06:54:44;71.47;;;20.58;;
61112;SDS011;47184;57.998;56.184;2023-02-22T06:57:13;46.80;;;15.98;;
61112;SDS011;47184;57.998;56.184;2023-02-22T06:59:40;45.28;;;15.48;;
61112;SDS011;47184;57.998;56.184;2023-02-22T07:02:06;63.05;;;21.95;;
61112;SDS011;47184;57.998;56.184;2023-02-22T07:04:32;61.33;;;19.58;;
61112;SDS011;47184;57.998;56.184;2023-02-22T07:06:58;60.50;;;19.73;;
61112;SDS011;47184;57.998;56.184;2023-02-22T07:09:24;62.88;;;20.23;;
61112;SDS011;47184;57.998;56.184;2023-02-22T07:11:50;59.80;;;21.35;;
61112;SDS011;47184;57.998;56.184;2023-02-22T07:14:16;52.58;;;16.83;;
61112;SDS011;47184;57.998;56.184;2023-02-22T07:16:42;21.90;;;7.80;;
61112;SDS011;47184;57.998;56.184;2023-02-22T07:19:08;35.22;;;13.48;;
61112;SDS011;47184;57.998;56.184;2023-02-22T07:21:34;27.45;;;7.45;;
61112;SDS011;47184;57.998;56.184;2023-02-22T07:24:00;36.90;;;14.05;;
61112;SDS011;47184;57.998;56.184;2023-02-22T07:26:26;35.42;;;12.82;;
61112;SDS011;47184;57.998;56.184;2023-02-22T07:28:52;42.20;;;12.27;;
61112;SDS011;47184;57.998;56.184;2023-02-22T07:31:18;30.02;;;10.77;;
61112;SDS011;47184;57.998;56.184;2023-02-22T07:33:45;46.22;;;15.02;;
61112;SDS011;47184;57.998;56.184;2023-02-22T07:36:12;27.63;;;10.05;;
61112;SDS011;47184;57.998;56.184;2023-02-22T07:38:44;45.65;;;14.48;;
61112;SDS011;47184;57.998;56.184;2023-02-22T07:41:10;37.42;;;11.55;;
61112;SDS011;47184;57.998;56.184;2023-02-22T07:43:36;28.33;;;8.02;;
61112;SDS011;47184;57.998;56.184;2023-02-22T07:46:02;15.48;;;6.18;;
61112;SDS011;47184;57.998;56.184;2023-02-22T07:48:32;12.20;;;4.88;;
61112;SDS011;47184;57.998;56.184;2023-02-22T07:50:59;12.15;;;3.88;;
61112;SDS011;47184;57.998;56.184;2023-02-22T07:53:27;18.08;;;6.55;;
61112;SDS011;47184;57.998;56.184;2023-02-22T07:55:55;17.15;;;6.63;;
61112;SDS011;47184;57.998;56.184;2023-02-22T07:58:26;9.27;;;3.45;;
61112;SDS011;47184;57.998;56.184;2023-02-22T08:00:54;22.13;;;6.32;;
61112;SDS011;47184;57.998;56.184;2023-02-22T08:03:22;10.68;;;3.85;;
61112;SDS011;47184;57.998;56.184;2023-02-22T08:05:53;21.38;;;6.90;;
61112;SDS011;47184;57.998;56.184;2023-02-22T08:08:21;15.38;;;6.72;;
61112;SDS011;47184;57.998;56.184;2023-02-22T08:10:47;17.63;;;6.97;;
61112;SDS011;47184;57.998;56.184;2023-02-22T08:13:15;18.50;;;6.65;;
61112;SDS011;47184;57.998;56.184;2023-02-22T08:15:46;16.33;;;6.65;;
61112;SDS011;47184;57.998;56.184;2023-02-22T08:18:16;11.07;;;5.57;;
61112;SDS011;47184;57.998;56.184;2023-02-22T08:20:44;10.02;;;3.63;;
61112;SDS011;47184;57.998;56.184;2023-02-22T08:23:12;11.48;;;4.80;;
61112;SDS011;47184;57.998;56.184;2023-02-22T08:25:40;15.90;;;5.80;;
61112;SDS011;47184;57.998;56.184;2023-02-22T08:28:09;9.85;;;4.75;;
61112;SDS011;47184;57.998;56.184;2023-02-22T08:30:38;18.00;;;6.47;;
61112;SDS011;47184;57.998;56.184;2023-02-22T08:33:08;17.33;;;6.47;;
61112;SDS011;47184;57.998;56.184;2023-02-22T08:35:38;16.55;;;5.90;;
61112;SDS011;47184;57.998;56.184;2023-02-22T08:38:14;18.35;;;7.38;;
61112;SDS011;47184;57.998;56.184;2023-02-22T08:40:51;7.93;;;3.50;;
61112;SDS011;47184;57.998;56.184;2023-02-22T08:43:20;17.27;;;6.50;;
61112;SDS011;47184;57.998;56.184;2023-02-22T08:45:47;16.23;;;7.20;;
61112;SDS011;47184;57.998;56.184;2023-02-22T08:48:13;17.98;;;7.63;;
61112;SDS011;47184;57.998;56.184;2023-02-22T08:50:40;18.77;;;6.72;;
61112;SDS011;47184;57.998;56.184;2023-02-22T08:53:07;17.50;;;6.85;;
61112;SDS011;47184;57.998;56.184;2023-02-22T08:55:37;18.73;;;7.80;;
61112;SDS011;47184;57.998;56.184;2023-02-22T08:58:05;13.45;;;6.78;;
61112;SDS011;47184;57.998;56.184;2023-02-22T09:00:33;27.13;;;11.00;;
61112;SDS011;47184;57.998;56.184;2023-02-22T09:03:03;22.25;;;8.60;;
61112;SDS011;47184;57.998;56.184;2023-02-22T09:05:31;27.85;;;11.07;;
61112;SDS011;47184;57.998;56.184;2023-02-22T09:07:58;13.30;;;6.68;;
61112;SDS011;47184;57.998;56.184;2023-02-22T09:10:26;35.40;;;13.55;;
61112;SDS011;47184;57.998;56.184;2023-02-22T09:12:56;35.50;;;13.60;;
61112;SDS011;47184;57.998;56.184;2023-02-22T09:15:25;43.05;;;13.70;;
61112;SDS011;47184;57.998;56.184;2023-02-22T09:17:51;54.67;;;15.68;;
61112;SDS011;47184;57.998;56.184;2023-02-22T09:20:19;31.80;;;12.38;;
61112;SDS011;47184;57.998;56.184;2023-02-22T09:22:47;37.92;;;14.02;;
61112;SDS011;47184;57.998;56.184;2023-02-22T09:25:14;34.60;;;13.43;;
61112;SDS011;47184;57.998;56.184;2023-02-22T09:27:51;46.75;;;15.35;;
61112;SDS011;47184;57.998;56.184;2023-02-22T09:32:59;55.58;;;15.45;;
61112;SDS011;47184;57.998;56.184;2023-02-22T09:35:28;36.80;;;14.48;;
61112;SDS011;47184;57.998;56.184;2023-02-22T09:37:54;36.78;;;13.02;;
61112;SDS011;47184;57.998;56.184;2023-02-22T09:40:22;34.05;;;13.40;;
61112;SDS011;47184;57.998;56.184;2023-02-22T09:45:42;24.00;;;10.43;;
61112;SDS011;47184;57.998;56.184;2023-02-22T09:54:09;36.40;;;11.38;;
61112;SDS011;47184;57.998;56.184;2023-02-22T09:56:42;23.00;;;10.23;;
61112;SDS011;47184;57.998;56.184;2023-02-22T09:59:11;21.27;;;9.52;;
61112;SDS011;47184;57.998;56.184;2023-02-22T10:01:47;34.55;;;10.93;;
61112;SDS011;47184;57.998;56.184;2023-02-22T10:04:23;26.67;;;10.75;;
61112;SDS011;47184;57.998;56.184;2023-02-22T10:09:53;29.38;;;10.50;;
61112;SDS011;47184;57.998;56.184;2023-02-22T10:12:41;30.38;;;10.90;;
61112;SDS011;47184;57.998;56.184;2023-02-22T10:23:32;26.08;;;9.13;;
61112;SDS011;47184;57.998;56.184;2023-02-22T10:26:11;24.50;;;8.70;;
61112;SDS011;47184;57.998;56.184;2023-02-22T10:28:40;34.00;;;11.45;;
61112;SDS011;47184;57.998;56.184;2023-02-22T10:31:18;25.38;;;10.88;;
61112;SDS011;47184;57.998;56.184;2023-02-22T10:33:58;33.28;;;9.45;;
61112;SDS011;47184;57.998;56.184;2023-02-22T10:36:27;30.35;;;12.02;;
61112;SDS011;47184;57.998;56.184;2023-02-22T10:38:54;29.50;;;10.98;;
61112;SDS011;47184;57.998;56.184;2023-02-22T10:41:31;21.65;;;8.27;;
61112;SDS011;47184;57.998;56.184;2023-02-22T10:44:00;25.88;;;8.95;;
61112;SDS011;47184;57.998;56.184;2023-02-22T10:46:27;30.35;;;10.27;;
61112;SDS011;47184;57.998;56.184;2023-02-22T10:48:55;21.27;;;9.20;;
61112;SDS011;47184;57.998;56.184;2023-02-22T10:51:27;23.58;;;9.07;;
61112;SDS011;47184;57.998;56.184;2023-02-22T10:54:17;21.50;;;8.75;;
61112;SDS011;47184;57.998;56.184;2023-02-22T10:56:46;23.77;;;9.07;;
61112;SDS011;47184;57.998;56.184;2023-02-22T10:59:28;25.15;;;9.88;;
61112;SDS011;47184;57.998;56.184;2023-02-22T11:01:57;29.70;;;11.10;;
61112;SDS011;47184;57.998;56.184;2023-02-22T11:04:24;23.05;;;8.82;;
61112;SDS011;47184;57.998;56.184;2023-02-22T11:09:25;30.80;;;10.23;;
61112;SDS011;47184;57.998;56.184;2023-02-22T11:12:06;4.20;;;1.48;;
61112;SDS011;47184;57.998;56.184;2023-02-22T11:14:41;27.70;;;10.93;;
61112;SDS011;47184;57.998;56.184;2023-02-22T11:17:07;32.80;;;11.60;;
61112;SDS011;47184;57.998;56.184;2023-02-22T11:19:35;29.60;;;9.35;;
61112;SDS011;47184;57.998;56.184;2023-02-22T11:25:07;35.75;;;10.65;;
61112;SDS011;47184;57.998;56.184;2023-02-22T11:27:43;31.10;;;9.38;;
61112;SDS011;47184;57.998;56.184;2023-02-22T11:32:47;18.80;;;6.38;;
61112;SDS011;47184;57.998;56.184;2023-02-22T11:37:52;26.77;;;10.02;;
61112;SDS011;47184;57.998;56.184;2023-02-22T11:40:20;24.65;;;9.57;;
61112;SDS011;47184;57.998;56.184;2023-02-22T11:42:47;28.92;;;10.25;;
61112;SDS011;47184;57.998;56.184;2023-02-22T11:45:30;21.83;;;8.07;;
61112;SDS011;47184;57.998;56.184;2023-02-22T11:48:00;27.27;;;9.23;;
61112;SDS011;47184;57.998;56.184;2023-02-22T11:53:07;41.10;;;15.70;;
61112;SDS011;47184;57.998;56.184;2023-02-22T12:12:41;26.58;;;9.30;;
61112;SDS011;47184;57.998;56.184;2023-02-22T12:15:50;26.63;;;10.10;;
61112;SDS011;47184;57.998;56.184;2023-02-22T12:20:56;34.42;;;8.85;;
61112;SDS011;47184;57.998;56.184;2023-02-22T12:28:56;37.38;;;11.40;;
61112;SDS011;47184;57.998;56.184;2023-02-22T12:42:43;27.40;;;10.02;;
61112;SDS011;47184;57.998;56.184;2023-02-22T12:45:39;45.20;;;12.35;;
61112;SDS011;47184;57.998;56.184;2023-02-22T12:48:30;31.77;;;10.82;;
61112;SDS011;47184;57.998;56.184;2023-02-22T12:51:14;23.40;;;7.68;;
61112;SDS011;47184;57.998;56.184;2023-02-22T12:53:48;31.48;;;10.20;;
61112;SDS011;47184;57.998;56.184;2023-02-22T12:56:36;18.33;;;6.07;;
61112;SDS011;47184;57.998;56.184;2023-02-22T12:59:35;12.70;;;4.88;;
61112;SDS011;47184;57.998;56.184;2023-02-22T13:04:46;12.40;;;3.72;;
61112;SDS011;47184;57.998;56.184;2023-02-22T13:07:24;26.88;;;8.88;;
61112;SDS011;47184;57.998;56.184;2023-02-22T13:12:50;33.17;;;10.45;;
61112;SDS011;47184;57.998;56.184;2023-02-22T13:15:40;18.27;;;7.50;;
61112;SDS011;47184;57.998;56.184;2023-02-22T13:18:49;10.25;;;4.07;;
61112;SDS011;47184;57.998;56.184;2023-02-22T13:21:30;26.35;;;9.05;;
61112;SDS011;47184;57.998;56.184;2023-02-22T13:26:38;25.65;;;7.25;;
61112;SDS011;47184;57.998;56.184;2023-02-22T13:29:50;18.27;;;5.07;;
61112;SDS011;47184;57.998;56.184;2023-02-22T13:32:17;23.40;;;8.15;;
61112;SDS011;47184;57.998;56.184;2023-02-22T13:35:04;24.17;;;7.10;;
61112;SDS011;47184;57.998;56.184;2023-02-22T13:37:43;22.45;;;7.45;;
61112;SDS011;47184;57.998;56.184;2023-02-22T13:40:43;25.10;;;7.07;;
61112;SDS011;47184;57.998;56.184;2023-02-22T13:46:11;28.50;;;9.38;;
61112;SDS011;47184;57.998;56.184;2023-02-22T13:54:05;30.80;;;9.68;;
61112;SDS011;47184;57.998;56.184;2023-02-22T13:56:40;28.45;;;8.43;;
61112;SDS011;47184;57.998;56.184;2023-02-22T13:59:19;17.15;;;5.50;;
61112;SDS011;47184;57.998;56.184;2023-02-22T14:01:49;35.08;;;8.00;;
61112;SDS011;47184;57.998;56.184;2023-02-22T14:04:19;14.60;;;6.35;;
61112;SDS011;47184;57.998;56.184;2023-02-22T14:06:52;22.42;;;7.80;;
61112;SDS011;47184;57.998;56.184;2023-02-22T14:22:45;20.67;;;6.70;;
61112;SDS011;47184;57.998;56.184;2023-02-22T14:28:04;28.15;;;9.10;;
61112;SDS011;47184;57.998;56.184;2023-02-22T14:31:02;25.15;;;8.40;;
61112;SDS011;47184;57.998;56.184;2023-02-22T14:33:50;33.22;;;9.52;;
61112;SDS011;47184;57.998;56.184;2023-02-22T14:36:23;36.10;;;9.63;;
61112;SDS011;47184;57.998;56.184;2023-02-22T14:39:05;41.35;;;10.57;;
61112;SDS011;47184;57.998;56.184;2023-02-22T14:41:39;30.52;;;9.82;;
61112;SDS011;47184;57.998;56.184;2023-02-22T14:44:09;31.88;;;10.18;;
61112;SDS011;47184;57.998;56.184;2023-02-22T14:46:38;31.17;;;10.73;;
61112;SDS011;47184;57.998;56.184;2023-02-22T14:49:08;37.05;;;11.02;;
61112;SDS011;47184;57.998;56.184;2023-02-22T14:51:48;35.53;;;9.95;;
61112;SDS011;47184;57.998;56.184;2023-02-22T14:54:24;52.88;;;12.63;;
61112;SDS011;47184;57.998;56.184;2023-02-22T14:59:55;25.80;;;8.35;;
61112;SDS011;47184;57.998;56.184;2023-02-22T15:02:24;50.17;;;14.48;;
61112;SDS011;47184;57.998;56.184;2023-02-22T15:04:53;33.78;;;10.43;;
61112;SDS011;47184;57.998;56.184;2023-02-22T15:10:03;41.35;;;13.18;;
61112;SDS011;47184;57.998;56.184;2023-02-22T15:12:32;41.83;;;12.30;;
61112;SDS011;47184;57.998;56.184;2023-02-22T15:15:17;21.98;;;8.88;;
61112;SDS011;47184;57.998;56.184;2023-02-22T15:17:53;32.00;;;11.43;;
61112;SDS011;47184;57.998;56.184;2023-02-22T15:20:20;47.25;;;13.15;;
61112;SDS011;47184;57.998;56.184;2023-02-22T15:22:49;28.27;;;11.20;;
61112;SDS011;47184;57.998;56.184;2023-02-22T15:25:17;31.08;;;10.55;;
61112;SDS011;47184;57.998;56.184;2023-02-22T15:27:50;16.05;;;6.18;;
61112;SDS011;47184;57.998;56.184;2023-02-22T15:30:24;21.42;;;8.82;;
61112;SDS011;47184;57.998;56.184;2023-02-22T15:32:53;3.35;;;2.35;;
61112;SDS011;47184;57.998;56.184;2023-02-22T15:35:25;24.05;;;7.55;;
61112;SDS011;47184;57.998;56.184;2023-02-22T15:38:00;16.98;;;6.35;;
61112;SDS011;47184;57.998;56.184;2023-02-22T15:40:28;39.45;;;10.85;;
61112;SDS011;47184;57.998;56.184;2023-02-22T15:42:58;14.73;;;6.75;;
61112;SDS011;47184;57.998;56.184;2023-02-22T15:45:26;39.78;;;8.68;;
61112;SDS011;47184;57.998;56.184;2023-02-22T15:47:53;31.60;;;8.90;;
61112;SDS011;47184;57.998;56.184;2023-02-22T15:50:22;30.67;;;9.73;;
61112;SDS011;47184;57.998;56.184;2023-02-22T15:55:24;46.95;;;14.30;;
61112;SDS011;47184;57.998;56.184;2023-02-22T15:57:52;34.42;;;10.57;;
61112;SDS011;47184;57.998;56.184;2023-02-22T16:00:20;22.70;;;9.43;;
61112;SDS011;47184;57.998;56.184;2023-02-22T16:03:01;40.03;;;12.73;;
61112;SDS011;47184;57.998;56.184;2023-02-22T16:05:31;49.58;;;11.45;;
61112;SDS011;47184;57.998;56.184;2023-02-22T16:08:03;38.50;;;12.07;;
61112;SDS011;47184;57.998;56.184;2023-02-22T16:10:40;34.70;;;11.27;;
61112;SDS011;47184;57.998;56.184;2023-02-22T16:13:23;42.55;;;12.00;;
61112;SDS011;47184;57.998;56.184;2023-02-22T16:15:58;24.08;;;6.47;;
61112;SDS011;47184;57.998;56.184;2023-02-22T16:18:33;10.57;;;3.80;;
61112;SDS011;47184;57.998;56.184;2023-02-22T16:26:21;31.05;;;8.02;;
61112;SDS011;47184;57.998;56.184;2023-02-22T16:28:52;24.38;;;5.80;;
61112;SDS011;47184;57.998;56.184;2023-02-22T16:31:27;28.67;;;9.52;;
61112;SDS011;47184;57.998;56.184;2023-02-22T16:33:58;16.42;;;4.25;;
61112;SDS011;47184;57.998;56.184;2023-02-22T16:36:41;34.80;;;10.40;;
61112;SDS011;47184;57.998;56.184;2023-02-22T16:39:19;28.92;;;9.23;;
61112;SDS011;47184;57.998;56.184;2023-02-22T16:41:55;27.13;;;9.30;;
61112;SDS011;47184;57.998;56.184;2023-02-22T16:44:23;26.20;;;8.77;;
61112;SDS011;47184;57.998;56.184;2023-02-22T16:46:55;27.35;;;10.15;;
61112;SDS011;47184;57.998;56.184;2023-02-22T16:49:22;43.72;;;10.70;;
61112;SDS011;47184;57.998;56.184;2023-02-22T16:51:58;36.38;;;11.38;;
61112;SDS011;47184;57.998;56.184;2023-02-22T16:54:29;33.05;;;11.35;;
61112;SDS011;47184;57.998;56.184;2023-02-22T16:57:01;33.92;;;8.68;;
61112;SDS011;47184;57.998;56.184;2023-02-22T16:59:35;30.55;;;8.75;;
61112;SDS011;47184;57.998;56.184;2023-02-22T17:02:04;40.47;;;9.93;;
61112;SDS011;47184;57.998;56.184;2023-02-22T17:04:34;37.20;;;10.63;;
61112;SDS011;47184;57.998;56.184;2023-02-22T17:07:00;29.80;;;9.27;;
61112;SDS011;47184;57.998;56.184;2023-02-22T17:09:27;25.00;;;8.45;;
61112;SDS011;47184;57.998;56.184;2023-02-22T17:11:53;30.90;;;10.70;;
61112;SDS011;47184;57.998;56.184;2023-02-22T17:14:21;37.75;;;10.10;;
61112;SDS011;47184;57.998;56.184;2023-02-22T17:16:49;23.98;;;8.10;;
61112;SDS011;47184;57.998;56.184;2023-02-22T17:19:16;36.25;;;11.00;;